• Join FlightAware (Why Join?)
  • Login
  • US Flag 
04:42PM EDT


 

Airport Tracker/Info


-or-


 

Live Flight TrackerFlight Track Log ✈ KAP5 ✈ 30-Jun-2013 ✈ KBOS - KMVY

Flight Track Log - Related Links

Times and Time Zones

All times are in EDT time to prevent confusion due to time zone crossing. See the KAP5 flight status page for this flight to view local times or setup timezone preferences in your user account.

Time Position Orientation Groundspeed Altitude Reporting Facility
EDT Latitude Longitude Course Direction KTS MPH feet Rate Location/Type
10:34AM 42.3500 -71.0167 236° Southwest 117 135 600  Level KA90
10:35AM 42.3333 -71.0500 236° Southwest 122 140 1,400 840 Climbing KA90
10:36AM 42.3000 -71.0833 216° Southwest 122 140 2,300 720 Climbing KA90
10:37AM 42.2833 -71.1000 216° Southwest 117 135 2,900 660 Climbing KA90
10:38AM 42.2500 -71.1000 180° South 115 132 3,600 660 Climbing KA90
10:39AM 42.2333 -71.0833 143° Southeast 119 137 4,300 660 Climbing KA90
10:40AM 42.2000 -71.0500 143° Southeast 122 140 5,000 300 Climbing KA90
10:41AM 42.1667 -71.0167 143° Southeast 151 174 5,000  Level KA90
10:42AM 42.1333 -70.9667 132° Southeast 163 188 5,000  Level KA90
10:44AM 42.0952 -70.9483 160° South  Level Estimated
10:51AM 41.9646 -70.8299 146° Southeast  Level FlightAware Approximate
10:52AM 41.9430 -70.8216 180° South  Level Estimated
10:53AM 41.9214 -70.8134 161° South  Level Estimated
10:54AM 41.8999 -70.8043 162° South  Level FlightAware Approximate
10:55AM 41.8785 -70.7951 162° South  Level FlightAware Approximate
10:56AM 41.8571 -70.7860 162° South  Level FlightAware Approximate
10:57AM 41.8356 -70.7768 162° South  Level FlightAware Approximate
10:58AM 41.8142 -70.7677 162° South  Level FlightAware Approximate
10:59AM 41.7927 -70.7586 162° South  Level FlightAware Approximate
11:00AM 41.7713 -70.7495 162° South  Level FlightAware Approximate
11:01AM 41.7499 -70.7403 162° South  Level FlightAware Approximate
11:02AM 41.7281 -70.7326 164° South  Level Estimated
11:03AM 41.7065 -70.7243 164° South  Level FlightAware Approximate
11:04AM 41.6849 -70.7160 164° South  Level FlightAware Approximate
11:05AM 41.6633 -70.7076 164° South  Level FlightAware Approximate
11:06AM 41.6417 -70.6993 164° South  Level FlightAware Approximate
11:07AM 41.6200 -70.6910 164° South  Level FlightAware Approximate
11:08AM 41.5983 -70.6836 164° South  Level Estimated
11:09AM 41.5766 -70.6753 164° South  Level FlightAware Approximate
11:10AM 41.5550 -70.6671 164° South  Level FlightAware Approximate